עמוד ראשי
METAR-TAF:

METAR-TAF

שדות תעופה :

Roatán, הונדורס

קו רוחב: 16-19N, קו אורך: 086-31W, גובה: 5מטר

תצפית מזג אוויר נוכחית

הדו"ח נערך לפני 41דקות, בשעה 21:00 UTC
רוח 12קשר מכיוון מזרח/דרום-מזרח
טמפרטורת 32 צלסיוס
לחות 75%
לחץ 1012 hPa
ראות 10 קילומטר או יותר
מעט עננים בגובה 2000רגל

METAR: MHRO 252100Z 11012KT 9999 FEW020 32/27 Q1012 A2989 NOSIG

זמן: 15:41 (21:41 UTC)

תחזית

הדו"ח נערך לפני 4 שעות ו 41דקות, בשעה 17:00 UTC
תחזית בתוקף מ 25 ב 18 UTC עד 26 ב 18 UTC
רוח 14קשר מכיוון מזרח
ראות 10 קילומטר או יותר
עננים פזורים בגובה 2000רגל

TAF: MHRO 251700Z 2518/2618 10014KT 9999 SCT020 TX32/2519Z TN28/2612Z

תצפיות ותחזיות מזג אוויר לגבי יותר מ- 4,000 שדות תעופה ברחבי העולם. דוחות METAR ו- TAF.

התחנות הזמינות מסומנות בנקודות צהובות ואדומות על גבי המפה.

העבר את העכבר לנקודה הצבעונית על מנת לראות את שם התחנה.

לאחר מכן, לחץ כדי לראות את תוכן ואת תחזיות מזג האוויר.

כדי לשנות את המפה: לחץ על הכפתורים הירוקים עם הפלוס השחור כדי להתקרב; על הכפתור הירוק עם המקף כדי להתרחק; או בחיצים הירוקים למפות סמוכות.


METAR-TAF: